createdAt,value
2022-11-30T00:05:34.870Z,101414.83
2022-11-30T00:11:59.165Z,101416.22
2022-11-30T00:18:18.190Z,101408.94
2022-11-30T00:24:42.505Z,101408.49
2022-11-30T00:31:07.181Z,101408.77
2022-11-30T00:37:24.197Z,101411.32
2022-11-30T00:43:48.460Z,101413.86
2022-11-30T00:50:12.768Z,101415.44
2022-11-30T00:56:37.294Z,101417.20
2022-11-30T01:03:01.551Z,101415.10
2022-11-30T01:09:25.876Z,101423.58
2022-11-30T01:15:50.272Z,101426.18
2022-11-30T01:22:14.616Z,101424.41
2022-11-30T01:28:39.218Z,101424.54
2022-11-30T01:35:03.539Z,101420.25
2022-11-30T01:41:30.672Z,101423.13
2022-11-30T01:47:57.898Z,101423.83
2022-11-30T01:54:22.304Z,101430.08
2022-11-30T02:00:46.833Z,101429.89
2022-11-30T02:07:11.159Z,101429.61
2022-11-30T02:13:50.428Z,101434.96
2022-11-30T02:20:17.380Z,101435.91
2022-11-30T02:26:41.700Z,101434.61
2022-11-30T02:33:39.893Z,101436.09
2022-11-30T02:40:04.422Z,101439.20
2022-11-30T02:46:31.741Z,101447.87
2022-11-30T02:52:56.208Z,101452.42
2022-11-30T02:59:20.610Z,101446.35
2022-11-30T03:05:45.031Z,101449.89
2022-11-30T03:12:09.465Z,101448.81
2022-11-30T03:18:33.960Z,101454.27
2022-11-30T03:24:58.376Z,101455.41
2022-11-30T03:31:22.697Z,101459.77
2022-11-30T03:37:47.082Z,101470.77
2022-11-30T03:44:11.360Z,101477.94
2022-11-30T03:50:35.709Z,101484.73
2022-11-30T03:56:59.996Z,101488.41
2022-11-30T04:03:18.229Z,101484.05
2022-11-30T04:09:42.603Z,101482.76
2022-11-30T04:16:07.174Z,101484.29
2022-11-30T04:22:31.525Z,101478.66
2022-11-30T04:28:56.265Z,101480.34
2022-11-30T04:35:20.562Z,101482.04
2022-11-30T04:41:37.476Z,101479.75
2022-11-30T04:48:01.894Z,101481.25
2022-11-30T04:54:26.201Z,101485.89
2022-11-30T05:00:50.857Z,101492.70
2022-11-30T05:07:15.249Z,101494.95
2022-11-30T05:13:39.537Z,101499.70
2022-11-30T05:20:03.603Z,101501.92
2022-11-30T05:26:27.986Z,101498.16
2022-11-30T05:32:51.562Z,101496.13
2022-11-30T05:39:15.907Z,101501.96
2022-11-30T05:45:40.414Z,101509.67
2022-11-30T05:52:13.669Z,101518.09
2022-11-30T05:58:31.703Z,101524.92
2022-11-30T06:04:56.073Z,101526.83
2022-11-30T06:11:19.093Z,101534.39
2022-11-30T06:17:43.395Z,101529.50
2022-11-30T06:24:06.357Z,101532.78
2022-11-30T06:30:30.813Z,101539.09
2022-11-30T06:36:55.202Z,101545.93
2022-11-30T06:43:19.602Z,101545.25
2022-11-30T06:49:42.564Z,101552.65
2022-11-30T06:56:10.466Z,101556.77
2022-11-30T07:02:35.269Z,101558.61
2022-11-30T07:08:59.704Z,101558.59
2022-11-30T07:15:24.143Z,101569.55
2022-11-30T07:21:48.555Z,101571.30
2022-11-30T07:28:12.929Z,101576.64
2022-11-30T07:34:37.343Z,101574.09
2022-11-30T07:41:01.669Z,101578.20
2022-11-30T07:47:25.997Z,101578.00
2022-11-30T07:53:50.296Z,101583.77
2022-11-30T08:00:14.636Z,101581.87
2022-11-30T08:06:41.960Z,101584.20
2022-11-30T08:13:06.398Z,101583.15
2022-11-30T08:19:30.727Z,101585.12
2022-11-30T08:25:55.228Z,101581.97
2022-11-30T08:32:19.860Z,101589.59
2022-11-30T08:38:44.349Z,101586.16
2022-11-30T08:45:08.749Z,101590.83
2022-11-30T08:51:53.779Z,101593.06
2022-11-30T08:58:17.569Z,101595.56
2022-11-30T09:04:41.869Z,101594.49
2022-11-30T09:11:06.364Z,101598.52
2022-11-30T09:17:30.721Z,101596.70
2022-11-30T09:23:55.016Z,101601.16
2022-11-30T09:30:19.466Z,101600.80
2022-11-30T09:36:43.814Z,101601.42
2022-11-30T09:43:14.141Z,101601.61
2022-11-30T09:50:00.057Z,101594.70
2022-11-30T09:56:39.810Z,101592.15
2022-11-30T10:03:04.338Z,101595.47
2022-11-30T10:09:49.442Z,101593.14
2022-11-30T10:16:30.238Z,101585.52
2022-11-30T10:23:00.766Z,101589.90
2022-11-30T10:29:30.987Z,101586.96
2022-11-30T10:35:57.986Z,101584.95
2022-11-30T10:42:22.397Z,101591.25
2022-11-30T10:48:46.800Z,101584.06
2022-11-30T10:55:16.909Z,101587.16
2022-11-30T11:01:44.072Z,101584.30
2022-11-30T11:08:08.892Z,101584.61
2022-11-30T11:14:38.199Z,101582.98
2022-11-30T11:21:11.396Z,101580.58
2022-11-30T11:27:39.837Z,101579.16
2022-11-30T11:34:13.652Z,101576.03
2022-11-30T11:40:38.111Z,101572.86
2022-11-30T11:47:11.588Z,101574.21
2022-11-30T11:53:53.341Z,101569.78
2022-11-30T12:00:30.400Z,101570.17
2022-11-30T12:06:54.686Z,101570.10
2022-11-30T12:13:19.076Z,101573.48
2022-11-30T12:19:58.304Z,101574.85
2022-11-30T12:26:40.824Z,101569.42
2022-11-30T12:33:25.240Z,101572.87
2022-11-30T12:40:04.722Z,101572.95
2022-11-30T12:46:32.347Z,101574.85
2022-11-30T12:52:55.663Z,101574.07
2022-11-30T12:59:20.507Z,101575.48
2022-11-30T13:05:47.747Z,101578.28
2022-11-30T13:12:14.828Z,101578.13
2022-11-30T13:18:39.352Z,101583.21
2022-11-30T13:25:15.764Z,101584.54
2022-11-30T13:31:46.128Z,101587.52
2022-11-30T13:38:35.854Z,101581.93
2022-11-30T13:45:13.371Z,101580.38
2022-11-30T13:51:50.225Z,101583.21
2022-11-30T13:58:30.294Z,101580.37
2022-11-30T14:04:56.367Z,101580.87
2022-11-30T14:11:29.893Z,101585.92
2022-11-30T14:17:52.549Z,101593.48
2022-11-30T14:24:42.090Z,101601.75
2022-11-30T14:31:06.931Z,101603.92
2022-11-30T14:37:40.098Z,101601.86
2022-11-30T14:44:04.502Z,101594.13
2022-11-30T14:50:28.929Z,101599.05
2022-11-30T14:57:02.045Z,101598.02
2022-11-30T15:03:26.348Z,101597.14
2022-11-30T15:09:51.185Z,101599.23
2022-11-30T15:16:18.603Z,101605.36
2022-11-30T15:22:46.536Z,101605.06
2022-11-30T15:29:13.598Z,101604.77
2022-11-30T15:35:57.399Z,101606.86
2022-11-30T15:42:22.283Z,101607.34
2022-11-30T15:48:46.725Z,101611.24
2022-11-30T15:55:22.949Z,101614.17
2022-11-30T16:01:47.516Z,101614.48
2022-11-30T16:08:17.907Z,101617.77
2022-11-30T16:14:42.285Z,101615.95
2022-11-30T16:21:06.770Z,101615.42
2022-11-30T16:27:31.972Z,101615.90
2022-11-30T16:33:56.232Z,101615.09
2022-11-30T16:40:20.500Z,101615.71
2022-11-30T16:46:44.894Z,101620.19
2022-11-30T16:53:09.278Z,101623.73
2022-11-30T16:59:33.800Z,101624.94
2022-11-30T17:05:58.124Z,101626.86
2022-11-30T17:12:34.469Z,101633.63
2022-11-30T17:18:58.826Z,101635.06
2022-11-30T17:25:24.023Z,101636.47
2022-11-30T17:31:48.445Z,101641.70
2022-11-30T17:38:12.856Z,101639.61
2022-11-30T17:44:37.244Z,101644.50
2022-11-30T17:51:01.551Z,101645.55
2022-11-30T17:57:25.919Z,101650.73
2022-11-30T18:03:53.178Z,101647.14
2022-11-30T18:10:17.533Z,101650.89
2022-11-30T18:16:47.522Z,101649.70
2022-11-30T18:23:11.844Z,101647.59
2022-11-30T18:29:36.156Z,101644.23
2022-11-30T18:36:00.424Z,101642.05
2022-11-30T18:42:24.749Z,101648.92
2022-11-30T18:48:49.053Z,101648.28
2022-11-30T18:55:13.375Z,101651.60
2022-11-30T19:01:37.956Z,101659.48
2022-11-30T19:08:03.244Z,101654.13
2022-11-30T19:14:28.583Z,101657.02
2022-11-30T19:20:54.208Z,101660.93
2022-11-30T19:27:19.624Z,101660.02
2022-11-30T19:33:44.779Z,101661.56
2022-11-30T19:40:10.106Z,101660.84
2022-11-30T19:46:35.622Z,101661.76
2022-11-30T19:53:00.896Z,101669.86
2022-11-30T19:59:25.866Z,101672.08
2022-11-30T20:05:51.025Z,101674.16
2022-11-30T20:12:15.729Z,101680.22
2022-11-30T20:18:45.458Z,101679.31
2022-11-30T20:25:10.863Z,101682.56
2022-11-30T20:31:35.504Z,101679.95
2022-11-30T20:37:59.888Z,101682.58
2022-11-30T20:44:24.257Z,101686.30
2022-11-30T20:51:14.102Z,101685.29
2022-11-30T20:57:33.172Z,101690.73
2022-11-30T21:03:57.522Z,101693.48
2022-11-30T21:10:22.049Z,101697.45
2022-11-30T21:16:46.529Z,101696.20
2022-11-30T21:22:53.726Z,101691.81
2022-11-30T21:29:18.189Z,101695.63
2022-11-30T21:35:42.448Z,101694.27
2022-11-30T21:42:06.751Z,101695.92
2022-11-30T21:48:31.006Z,101690.29
2022-11-30T21:54:55.114Z,101691.20
2022-11-30T22:01:19.611Z,101694.64
2022-11-30T22:07:44.056Z,101692.55
2022-11-30T22:14:08.482Z,101686.86
2022-11-30T22:20:32.819Z,101687.98
2022-11-30T22:26:57.191Z,101695.10
2022-11-30T22:33:21.565Z,101692.60
2022-11-30T22:39:46.310Z,101685.54
2022-11-30T22:46:11.308Z,101688.77
2022-11-30T22:53:01.376Z,101694.15
2022-11-30T22:59:19.910Z,101688.47
2022-11-30T23:05:44.217Z,101687.83
2022-11-30T23:12:08.638Z,101688.23
2022-11-30T23:18:33.034Z,101681.94
2022-11-30T23:24:57.328Z,101677.52
2022-11-30T23:31:33.916Z,101679.11
2022-11-30T23:38:00.099Z,101674.75
2022-11-30T23:44:24.530Z,101672.30
2022-11-30T23:50:49.051Z,101672.20
2022-11-30T23:57:13.352Z,101675.87
